createdAt,value
2022-12-23T00:03:01.443Z,19.23
2022-12-23T00:06:12.488Z,19.80
2022-12-23T00:09:15.214Z,17.80
2022-12-23T00:12:36.766Z,24.92
2022-12-23T00:15:39.766Z,23.38
2022-12-23T00:18:43.761Z,23.00
2022-12-23T00:21:47.166Z,20.07
2022-12-23T00:24:50.097Z,21.63
2022-12-23T00:28:01.603Z,27.10
2022-12-23T00:31:07.859Z,23.42
2022-12-23T00:34:12.232Z,23.95
2022-12-23T00:37:15.221Z,25.60
2022-12-23T00:40:38.391Z,31.03
2022-12-23T00:43:41.389Z,25.55
2022-12-23T00:46:44.398Z,32.65
2022-12-23T00:49:47.360Z,29.52
2022-12-23T00:52:50.042Z,25.03
2022-12-23T00:55:53.120Z,29.00
2022-12-23T00:58:56.161Z,25.60
2022-12-23T01:02:17.903Z,23.55
2022-12-23T01:05:49.718Z,22.92
2022-12-23T01:08:52.763Z,18.73
2022-12-23T01:11:55.409Z,31.43
2022-12-23T01:14:58.703Z,21.87
2022-12-23T01:18:01.403Z,19.35
2022-12-23T01:21:07.376Z,17.87
2022-12-23T01:24:12.480Z,19.60
2022-12-23T01:27:15.508Z,18.97
2022-12-23T01:30:18.226Z,19.17
2022-12-23T01:33:21.537Z,19.75
2022-12-23T01:36:24.215Z,18.40
2022-12-23T01:39:27.221Z,18.97
2022-12-23T01:42:47.481Z,18.30
2022-12-23T01:45:50.688Z,18.92
2022-12-23T01:48:54.079Z,19.30
2022-12-23T01:51:57.098Z,17.45
2022-12-23T01:54:59.857Z,19.50
2022-12-23T01:58:26.044Z,17.20
2022-12-23T02:01:48.929Z,16.73
2022-12-23T02:04:53.098Z,18.87
2022-12-23T02:08:15.297Z,17.83
2022-12-23T02:11:33.489Z,17.30
2022-12-23T02:15:12.834Z,20.60
2022-12-23T02:18:44.500Z,19.10
2022-12-23T02:22:13.353Z,18.35
2022-12-23T02:25:31.453Z,23.77
2022-12-23T02:29:15.278Z,23.70
2022-12-23T02:32:50.503Z,21.70
2022-12-23T02:36:02.111Z,22.77
2022-12-23T02:39:15.696Z,22.70
2022-12-23T02:42:24.388Z,22.80
2022-12-23T02:45:45.827Z,22.43
2022-12-23T02:48:56.889Z,20.07
2022-12-23T02:52:03.921Z,20.50
2022-12-23T02:55:13.997Z,19.92
2022-12-23T02:58:21.216Z,20.50
2022-12-23T03:01:26.409Z,19.93
2022-12-23T03:04:29.492Z,22.07
2022-12-23T03:07:44.155Z,18.50
2022-12-23T03:11:02.163Z,19.25
2022-12-23T03:14:16.936Z,20.95
2022-12-23T03:17:48.542Z,21.40
2022-12-23T03:21:14.811Z,21.03
2022-12-23T03:24:30.757Z,19.40
2022-12-23T03:27:41.263Z,20.00
2022-12-23T03:30:49.803Z,21.42
2022-12-23T03:33:59.820Z,24.37
2022-12-23T03:37:06.853Z,18.90
2022-12-23T03:40:16.743Z,23.80
2022-12-23T03:43:27.333Z,20.45
2022-12-23T03:46:38.571Z,22.67
2022-12-23T03:50:12.366Z,21.43
2022-12-23T03:53:36.768Z,19.80
2022-12-23T03:56:46.365Z,18.52
2022-12-23T03:59:53.569Z,22.37
2022-12-23T04:03:12.449Z,19.87
2022-12-23T04:06:18.484Z,21.87
2022-12-23T04:09:23.084Z,20.07
2022-12-23T04:12:27.796Z,19.95
2022-12-23T04:15:30.997Z,21.48
2022-12-23T04:18:34.184Z,21.30
2022-12-23T04:21:37.356Z,19.27
2022-12-23T04:24:40.471Z,25.00
2022-12-23T04:27:43.517Z,22.15
2022-12-23T04:30:46.635Z,19.65
2022-12-23T04:33:49.412Z,20.12
2022-12-23T04:36:52.531Z,19.43
2022-12-23T04:39:55.191Z,18.37
2022-12-23T04:42:58.467Z,16.50
2022-12-23T04:46:01.166Z,17.00
2022-12-23T04:49:04.154Z,16.95
2022-12-23T04:52:08.361Z,17.40
2022-12-23T04:55:12.167Z,16.10
2022-12-23T04:58:14.839Z,17.10
2022-12-23T05:01:17.814Z,16.30
2022-12-23T05:04:20.568Z,17.42
2022-12-23T05:07:23.633Z,17.43
2022-12-23T05:10:26.388Z,16.90
2022-12-23T05:13:29.548Z,18.25
2022-12-23T05:16:34.281Z,20.95
2022-12-23T05:19:37.392Z,20.85
2022-12-23T05:22:40.172Z,19.17
2022-12-23T05:25:43.176Z,20.17
2022-12-23T05:28:46.949Z,19.05
2022-12-23T05:31:50.007Z,21.10
2022-12-23T05:34:52.979Z,18.60
2022-12-23T05:37:57.154Z,17.87
2022-12-23T05:40:59.955Z,19.07
2022-12-23T05:44:02.941Z,17.17
2022-12-23T05:47:06.300Z,20.80
2022-12-23T05:50:09.686Z,15.15
2022-12-23T05:53:12.433Z,15.60
2022-12-23T05:56:15.397Z,18.63
2022-12-23T05:59:18.255Z,16.48
2022-12-23T06:02:22.397Z,17.48
2022-12-23T06:05:25.775Z,16.98
2022-12-23T06:08:28.480Z,17.70
2022-12-23T06:11:31.531Z,15.47
2022-12-23T06:14:34.441Z,16.85
2022-12-23T06:17:37.657Z,16.62
2022-12-23T06:20:40.380Z,15.20
2022-12-23T06:23:43.476Z,15.27
2022-12-23T06:26:49.731Z,16.50
2022-12-23T06:29:56.526Z,16.60
2022-12-23T06:32:59.146Z,16.87
2022-12-23T06:36:02.282Z,17.55
2022-12-23T06:39:04.992Z,15.77
2022-12-23T06:42:08.030Z,15.63
2022-12-23T06:45:11.277Z,16.45
2022-12-23T06:48:14.356Z,18.92
2022-12-23T06:51:17.023Z,20.40
2022-12-23T06:54:21.000Z,31.37
2022-12-23T06:57:23.690Z,21.13
2022-12-23T07:00:26.772Z,53.55
2022-12-23T07:03:29.523Z,43.90
2022-12-23T07:06:32.909Z,19.12
2022-12-23T07:09:35.734Z,31.17
2022-12-23T07:12:39.477Z,34.53
2022-12-23T07:15:42.242Z,62.67
2022-12-23T07:18:45.372Z,45.70
2022-12-23T07:21:48.134Z,28.40
2022-12-23T07:24:53.957Z,22.33
2022-12-23T07:27:57.091Z,28.33
2022-12-23T07:31:00.230Z,54.80
2022-12-23T07:34:02.933Z,32.67
2022-12-23T07:37:06.077Z,26.85
2022-12-23T07:40:09.922Z,24.37
2022-12-23T07:43:13.670Z,45.17
2022-12-23T07:46:16.418Z,33.00
2022-12-23T07:49:19.430Z,26.83
2022-12-23T07:52:23.062Z,24.35
2022-12-23T07:55:26.294Z,25.20
2022-12-23T07:58:28.964Z,30.23
2022-12-23T08:01:32.167Z,25.15
2022-12-23T08:04:37.405Z,31.35
2022-12-23T08:07:45.239Z,26.48
2022-12-23T08:10:48.907Z,25.87
2022-12-23T08:13:52.943Z,25.83
2022-12-23T08:16:56.813Z,20.17
2022-12-23T08:19:59.739Z,25.83
2022-12-23T08:23:11.620Z,27.70
2022-12-23T08:26:19.527Z,24.53
2022-12-23T08:29:22.533Z,25.57
2022-12-23T08:32:28.655Z,26.80
2022-12-23T08:35:31.810Z,24.45
2022-12-23T08:38:35.915Z,39.10
2022-12-23T08:41:44.566Z,41.17
2022-12-23T08:44:47.330Z,22.87
2022-12-23T08:47:50.279Z,21.87
2022-12-23T08:50:53.067Z,21.87
2022-12-23T08:54:01.110Z,20.25
2022-12-23T08:57:04.259Z,22.67
2022-12-23T09:00:07.994Z,22.53
2022-12-23T09:03:11.829Z,20.55
2022-12-23T09:06:26.562Z,20.42
2022-12-23T09:09:32.844Z,21.17
2022-12-23T09:12:36.201Z,20.47
2022-12-23T09:15:45.709Z,20.40
2022-12-23T09:18:48.769Z,21.10
2022-12-23T09:21:51.555Z,23.02
2022-12-23T09:24:59.894Z,23.23
2022-12-23T09:28:07.409Z,21.43
2022-12-23T09:31:12.261Z,23.00
2022-12-23T09:34:15.204Z,21.60
2022-12-23T09:37:18.278Z,21.25
2022-12-23T09:40:22.063Z,21.52
2022-12-23T09:43:58.772Z,20.13
2022-12-23T09:47:05.150Z,19.87
2022-12-23T09:50:35.688Z,19.10
2022-12-23T09:54:16.611Z,18.15
2022-12-23T09:57:35.592Z,17.75
2022-12-23T10:01:00.736Z,18.30
2022-12-23T10:04:28.970Z,17.70
2022-12-23T10:07:37.760Z,17.67
2022-12-23T10:11:00.414Z,20.65
2022-12-23T10:14:12.070Z,20.20
2022-12-23T10:17:30.605Z,13.10
2022-12-23T10:21:20.326Z,10.23
2022-12-23T10:24:34.263Z,7.57
2022-12-23T10:27:41.977Z,10.02
2022-12-23T10:31:23.839Z,11.68
2022-12-23T10:34:33.454Z,7.83
2022-12-23T10:37:52.064Z,11.10
2022-12-23T10:41:08.928Z,11.68
2022-12-23T10:44:21.236Z,9.00
2022-12-23T10:47:45.265Z,10.32
2022-12-23T10:51:02.640Z,9.13
2022-12-23T10:54:10.536Z,10.70
2022-12-23T10:57:18.121Z,9.57
2022-12-23T11:00:24.374Z,10.45
2022-12-23T11:03:29.372Z,12.10
2022-12-23T11:06:37.612Z,10.50
2022-12-23T11:09:55.449Z,9.27
2022-12-23T11:12:58.972Z,8.98
2022-12-23T11:16:17.372Z,9.88
2022-12-23T11:19:21.449Z,9.27
2022-12-23T11:22:25.626Z,10.77
2022-12-23T11:25:38.361Z,11.37
2022-12-23T11:28:50.092Z,10.27
2022-12-23T11:31:53.076Z,9.98
2022-12-23T11:34:56.697Z,10.00
2022-12-23T11:38:02.043Z,9.70
2022-12-23T11:41:05.853Z,11.13
2022-12-23T11:44:31.138Z,10.60
2022-12-23T11:47:42.142Z,10.02
2022-12-23T11:50:44.837Z,9.35
2022-12-23T11:53:47.786Z,10.33
2022-12-23T11:56:53.157Z,8.53
2022-12-23T12:00:00.999Z,10.20
2022-12-23T12:03:07.318Z,8.38
2022-12-23T12:06:15.816Z,9.85
2022-12-23T12:09:19.071Z,9.50
2022-12-23T12:12:22.444Z,9.67
2022-12-23T12:15:48.992Z,10.90
2022-12-23T12:18:56.214Z,9.50
2022-12-23T12:22:06.063Z,8.75
2022-12-23T12:25:22.197Z,10.43
2022-12-23T12:28:32.911Z,10.60
2022-12-23T12:31:42.087Z,10.10
2022-12-23T12:34:57.603Z,9.73
2022-12-23T12:38:20.807Z,11.05
2022-12-23T12:41:29.236Z,12.23
2022-12-23T12:44:58.592Z,10.63
2022-12-23T12:48:31.506Z,9.88
2022-12-23T12:51:49.866Z,11.38
2022-12-23T12:55:13.763Z,8.98
2022-12-23T12:58:22.136Z,11.53
2022-12-23T13:01:53.931Z,11.97
2022-12-23T13:05:29.518Z,10.93
2022-12-23T13:08:38.213Z,11.80
2022-12-23T13:11:47.865Z,14.00
2022-12-23T13:15:15.500Z,13.10
2022-12-23T13:18:56.803Z,11.57
2022-12-23T13:22:15.248Z,8.98
2022-12-23T13:25:31.603Z,10.52
2022-12-23T13:28:46.572Z,12.88
2022-12-23T13:31:59.842Z,12.80
2022-12-23T13:35:31.327Z,12.07
2022-12-23T13:38:54.703Z,12.52
2022-12-23T13:42:05.612Z,13.68
2022-12-23T13:45:18.212Z,15.25
2022-12-23T13:48:26.776Z,15.30
2022-12-23T13:51:29.679Z,14.07
2022-12-23T13:54:46.609Z,16.27
2022-12-23T13:58:11.676Z,17.73
2022-12-23T14:01:14.250Z,16.15
2022-12-23T14:04:37.566Z,14.10
2022-12-23T14:07:45.093Z,17.47
2022-12-23T14:11:20.102Z,20.25
2022-12-23T14:14:25.279Z,19.08
2022-12-23T14:18:04.350Z,19.17
2022-12-23T14:21:36.360Z,23.77
2022-12-23T14:24:51.976Z,22.20
2022-12-23T14:27:57.311Z,21.35
2022-12-23T14:31:03.288Z,22.17
2022-12-23T14:34:18.055Z,22.48
2022-12-23T14:37:21.083Z,21.67
2022-12-23T14:40:38.922Z,22.40
2022-12-23T14:43:45.945Z,27.52
2022-12-23T14:46:48.704Z,22.90
2022-12-23T14:49:52.005Z,19.48
2022-12-23T14:53:02.932Z,20.87
2022-12-23T14:56:32.252Z,24.23
2022-12-23T15:00:01.620Z,25.95
2022-12-23T15:03:04.884Z,23.73
2022-12-23T15:06:08.731Z,23.75
2022-12-23T15:09:32.761Z,23.97
2022-12-23T15:12:38.832Z,31.20
2022-12-23T15:15:58.989Z,29.40
2022-12-23T15:19:19.443Z,29.17
2022-12-23T15:22:28.518Z,28.90
2022-12-23T15:25:39.772Z,26.87
2022-12-23T15:28:43.078Z,23.43
2022-12-23T15:31:50.714Z,21.45
2022-12-23T15:35:07.213Z,33.00
2022-12-23T15:38:15.177Z,28.40
2022-12-23T15:41:18.871Z,30.57
2022-12-23T15:44:24.469Z,32.80
2022-12-23T15:47:39.092Z,34.17
2022-12-23T15:50:42.306Z,38.28
2022-12-23T15:53:47.765Z,74.32
2022-12-23T15:56:53.783Z,58.23
2022-12-23T15:59:59.443Z,59.03
2022-12-23T16:03:06.473Z,52.15
2022-12-23T16:06:17.612Z,33.83
2022-12-23T16:09:20.231Z,31.85
2022-12-23T16:12:26.644Z,36.07
2022-12-23T16:15:33.327Z,34.40
2022-12-23T16:18:47.331Z,31.83
2022-12-23T16:21:50.908Z,32.15
2022-12-23T16:24:58.067Z,33.60
2022-12-23T16:28:11.279Z,32.77
2022-12-23T16:31:17.909Z,35.77
2022-12-23T16:34:20.797Z,33.67
2022-12-23T16:37:24.904Z,32.80
2022-12-23T16:40:27.651Z,27.95
2022-12-23T16:43:31.266Z,25.50
2022-12-23T16:46:37.906Z,25.87
2022-12-23T16:49:41.675Z,26.75
2022-12-23T16:52:45.935Z,27.08
2022-12-23T16:55:56.668Z,31.85
2022-12-23T16:59:03.996Z,27.70
2022-12-23T17:02:19.532Z,29.87
2022-12-23T17:05:23.459Z,35.80
2022-12-23T17:08:26.475Z,40.75
2022-12-23T17:11:40.575Z,40.80
2022-12-23T17:14:43.619Z,46.00
2022-12-23T17:17:47.543Z,36.47
2022-12-23T17:20:52.887Z,34.55
2022-12-23T17:24:11.096Z,34.92
2022-12-23T17:27:17.488Z,43.47
2022-12-23T17:30:23.067Z,39.97
2022-12-23T17:33:31.308Z,39.67
2022-12-23T17:36:35.495Z,39.47
2022-12-23T17:39:38.688Z,40.10
2022-12-23T17:42:42.181Z,37.67
2022-12-23T17:45:47.753Z,34.87
2022-12-23T17:48:53.513Z,35.67
2022-12-23T17:51:56.532Z,36.90
2022-12-23T17:54:59.231Z,36.38
2022-12-23T17:58:02.292Z,37.17
2022-12-23T18:01:05.303Z,51.73
2022-12-23T18:04:08.382Z,49.17
2022-12-23T18:07:12.737Z,54.38
2022-12-23T18:10:19.093Z,53.47
2022-12-23T18:13:21.953Z,55.67
2022-12-23T18:16:24.980Z,53.43
2022-12-23T18:19:27.655Z,55.73
2022-12-23T18:22:31.282Z,58.35
2022-12-23T18:25:34.006Z,60.50
2022-12-23T18:28:37.101Z,59.75
2022-12-23T18:31:51.239Z,61.27
2022-12-23T18:34:55.697Z,60.20
2022-12-23T18:38:02.163Z,37.17
2022-12-23T18:41:05.239Z,28.92
2022-12-23T18:44:17.604Z,32.88
2022-12-23T18:47:22.991Z,32.97
2022-12-23T18:50:26.229Z,29.33
2022-12-23T18:53:29.302Z,35.95
2022-12-23T18:56:31.901Z,41.03
2022-12-23T18:59:37.796Z,51.60
2022-12-23T19:02:40.707Z,47.40
2022-12-23T19:05:48.995Z,35.93
2022-12-23T19:08:51.699Z,35.45
2022-12-23T19:11:55.122Z,33.33
2022-12-23T19:14:58.034Z,32.35
2022-12-23T19:18:01.166Z,32.10
2022-12-23T19:21:05.185Z,27.00
2022-12-23T19:24:11.096Z,24.83
2022-12-23T19:27:13.803Z,27.00
2022-12-23T19:30:18.696Z,28.45
2022-12-23T19:33:21.867Z,26.37
2022-12-23T19:36:25.211Z,26.63
2022-12-23T19:39:28.046Z,24.52
2022-12-23T19:42:31.213Z,24.55
2022-12-23T19:45:35.411Z,24.87
2022-12-23T19:48:39.079Z,26.90
2022-12-23T19:51:41.910Z,28.87
2022-12-23T19:54:47.564Z,27.35
2022-12-23T19:57:52.133Z,23.45
2022-12-23T20:01:06.652Z,24.35
2022-12-23T20:04:10.716Z,25.30
2022-12-23T20:07:13.805Z,34.00
2022-12-23T20:10:18.235Z,32.60
2022-12-23T20:13:21.316Z,28.00
2022-12-23T20:16:25.150Z,29.52
2022-12-23T20:19:28.489Z,29.63
2022-12-23T20:22:31.927Z,33.53
2022-12-23T20:25:34.738Z,27.95
2022-12-23T20:28:38.648Z,23.42
2022-12-23T20:31:42.004Z,22.87
2022-12-23T20:34:45.218Z,22.57
2022-12-23T20:37:48.153Z,20.67
2022-12-23T20:40:51.195Z,23.17
2022-12-23T20:44:31.611Z,21.73
2022-12-23T20:47:18.532Z,21.12
2022-12-23T20:50:21.993Z,23.63
2022-12-23T20:53:25.153Z,20.83
2022-12-23T20:56:32.425Z,22.35
2022-12-23T20:59:35.496Z,23.25
2022-12-23T21:02:38.152Z,21.37
2022-12-23T21:05:41.674Z,20.67
2022-12-23T21:08:47.071Z,22.37
2022-12-23T21:11:50.174Z,33.75
2022-12-23T21:14:52.904Z,26.67
2022-12-23T21:17:56.111Z,24.98
2022-12-23T21:21:00.395Z,21.80
2022-12-23T21:24:06.377Z,26.70
2022-12-23T21:27:09.051Z,24.98
2022-12-23T21:30:12.331Z,20.52
2022-12-23T21:33:15.028Z,20.30
2022-12-23T21:36:21.006Z,18.10
2022-12-23T21:39:23.792Z,21.80
2022-12-23T21:42:27.704Z,24.37
2022-12-23T21:45:30.682Z,24.05
2022-12-23T21:48:36.077Z,22.45
2022-12-23T21:51:40.782Z,19.83
2022-12-23T21:54:46.347Z,18.90
2022-12-23T21:57:49.079Z,17.67
2022-12-23T22:00:52.843Z,18.42
2022-12-23T22:03:57.169Z,20.88
2022-12-23T22:06:59.895Z,15.67
2022-12-23T22:10:03.102Z,16.87
2022-12-23T22:13:06.762Z,17.65
2022-12-23T22:16:15.593Z,17.10
2022-12-23T22:19:18.386Z,13.73
2022-12-23T22:22:22.369Z,14.07
2022-12-23T22:25:25.604Z,5.57
2022-12-23T22:28:31.337Z,14.68
2022-12-23T22:31:58.266Z,13.65
2022-12-23T22:35:02.445Z,13.85
2022-12-23T22:38:06.826Z,13.73
2022-12-23T22:41:10.937Z,15.40
2022-12-23T22:44:15.927Z,14.55
2022-12-23T22:47:21.321Z,12.98
2022-12-23T22:50:25.850Z,13.43
2022-12-23T22:53:32.107Z,14.60
2022-12-23T22:56:36.972Z,13.33
2022-12-23T22:59:44.931Z,18.00
2022-12-23T23:02:49.934Z,16.77
2022-12-23T23:06:12.493Z,14.18
2022-12-23T23:09:20.595Z,12.87
2022-12-23T23:15:48.167Z,14.05
2022-12-23T23:18:54.130Z,15.57
2022-12-23T23:21:57.991Z,18.50
2022-12-23T23:25:02.173Z,17.20
2022-12-23T23:28:12.693Z,16.40
2022-12-23T23:34:43.717Z,16.00
2022-12-23T23:37:48.109Z,20.10
2022-12-23T23:40:56.907Z,17.70
2022-12-23T23:44:01.675Z,16.13
2022-12-23T23:47:06.388Z,14.85
2022-12-23T23:50:12.736Z,16.42
2022-12-23T23:53:16.951Z,16.17
2022-12-23T23:56:25.368Z,17.07
2022-12-23T23:59:31.065Z,17.37
